sensor_id;sensor_type;location;lat;lon;timestamp;pressure;altitude;pressure_sealevel;temperature;humidity
51928;BME280;37953;52.806;18.270;2022-08-07T00:01:42;101557.59;;;17.41;77.62
51928;BME280;37953;52.806;18.270;2022-08-07T00:04:08;101559.34;;;17.40;77.45
51928;BME280;37953;52.806;18.270;2022-08-07T00:06:34;101556.78;;;17.36;77.39
51928;BME280;37953;52.806;18.270;2022-08-07T00:09:01;101563.78;;;17.34;77.25
51928;BME280;37953;52.806;18.270;2022-08-07T00:11:27;101560.31;;;17.30;77.52
51928;BME280;37953;52.806;18.270;2022-08-07T00:13:53;101563.84;;;17.27;77.35
51928;BME280;37953;52.806;18.270;2022-08-07T00:16:19;101562.97;;;17.24;78.41
51928;BME280;37953;52.806;18.270;2022-08-07T00:18:44;101559.53;;;17.17;78.17
51928;BME280;37953;52.806;18.270;2022-08-07T00:21:11;101562.19;;;17.13;78.67
51928;BME280;37953;52.806;18.270;2022-08-07T00:23:38;101565.72;;;17.08;78.16
51928;BME280;37953;52.806;18.270;2022-08-07T00:26:07;101567.47;;;17.05;78.24
51928;BME280;37953;52.806;18.270;2022-08-07T00:28:37;101564.88;;;17.02;78.19
51928;BME280;37953;52.806;18.270;2022-08-07T00:31:10;101571.91;;;16.98;78.87
51928;BME280;37953;52.806;18.270;2022-08-07T00:33:37;101572.81;;;16.96;79.05
51928;BME280;37953;52.806;18.270;2022-08-07T00:36:05;101573.66;;;16.96;79.07
51928;BME280;37953;52.806;18.270;2022-08-07T00:38:33;101575.38;;;16.97;79.32
51928;BME280;37953;52.806;18.270;2022-08-07T00:41:02;101575.38;;;16.97;78.92
51928;BME280;37953;52.806;18.270;2022-08-07T00:43:28;101575.44;;;16.94;79.16
51928;BME280;37953;52.806;18.270;2022-08-07T00:45:54;101575.38;;;16.97;78.79
51928;BME280;37953;52.806;18.270;2022-08-07T00:48:19;101571.03;;;16.98;78.37
51928;BME280;37953;52.806;18.270;2022-08-07T00:50:45;101575.38;;;16.99;78.32
51928;BME280;37953;52.806;18.270;2022-08-07T00:53:11;101579.78;;;16.97;78.69
51928;BME280;37953;52.806;18.270;2022-08-07T00:55:37;101576.28;;;16.96;78.97
51928;BME280;37953;52.806;18.270;2022-08-07T00:58:03;101568.41;;;16.95;79.08
51928;BME280;37953;52.806;18.270;2022-08-07T01:00:29;101572.81;;;16.94;78.90
51928;BME280;37953;52.806;18.270;2022-08-07T01:02:55;101573.66;;;16.93;78.36
51928;BME280;37953;52.806;18.270;2022-08-07T01:05:22;101575.44;;;16.91;78.39
51928;BME280;37953;52.806;18.270;2022-08-07T01:07:48;101571.06;;;16.90;78.72
51928;BME280;37953;52.806;18.270;2022-08-07T01:10:14;101575.44;;;16.91;78.47
51928;BME280;37953;52.806;18.270;2022-08-07T01:12:41;101572.84;;;16.89;78.05
51928;BME280;37953;52.806;18.270;2022-08-07T01:15:13;101572.84;;;16.88;78.08
51928;BME280;37953;52.806;18.270;2022-08-07T01:17:39;101572.88;;;16.85;77.97
51928;BME280;37953;52.806;18.270;2022-08-07T01:20:08;101572.00;;;16.81;79.18
51928;BME280;37953;52.806;18.270;2022-08-07T01:22:36;101573.72;;;16.78;79.48
51928;BME280;37953;52.806;18.270;2022-08-07T01:25:03;101564.13;;;16.74;79.28
51928;BME280;37953;52.806;18.270;2022-08-07T01:27:29;101575.50;;;16.73;79.38
51928;BME280;37953;52.806;18.270;2022-08-07T01:29:55;101575.50;;;16.73;79.63
51928;BME280;37953;52.806;18.270;2022-08-07T01:32:21;101570.25;;;16.69;79.57
51928;BME280;37953;52.806;18.270;2022-08-07T01:34:48;101577.31;;;16.66;79.93
51928;BME280;37953;52.806;18.270;2022-08-07T01:37:14;101570.31;;;16.60;80.51
51928;BME280;37953;52.806;18.270;2022-08-07T01:39:43;101577.31;;;16.58;80.68
51928;BME280;37953;52.806;18.270;2022-08-07T01:42:09;101564.19;;;16.57;81.10
51928;BME280;37953;52.806;18.270;2022-08-07T01:44:35;101566.84;;;16.55;81.04
51928;BME280;37953;52.806;18.270;2022-08-07T01:47:01;101554.63;;;16.49;80.82
51928;BME280;37953;52.806;18.270;2022-08-07T01:49:27;101563.38;;;16.50;81.15
51928;BME280;37953;52.806;18.270;2022-08-07T01:51:54;101568.63;;;16.44;81.64
51928;BME280;37953;52.806;18.270;2022-08-07T01:54:20;101568.66;;;16.39;81.66
51928;BME280;37953;52.806;18.270;2022-08-07T01:56:53;101558.19;;;16.36;82.22
51928;BME280;37953;52.806;18.270;2022-08-07T01:59:25;101566.91;;;16.40;82.17
51928;BME280;37953;52.806;18.270;2022-08-07T02:01:56;101569.53;;;16.38;82.13
51928;BME280;37953;52.806;18.270;2022-08-07T02:04:27;101566.94;;;16.38;81.91
51928;BME280;37953;52.806;18.270;2022-08-07T02:06:56;101562.53;;;16.37;81.54
51928;BME280;37953;52.806;18.270;2022-08-07T02:09:24;101570.41;;;16.36;82.09
51928;BME280;37953;52.806;18.270;2022-08-07T02:11:52;101566.91;;;16.35;82.82
51928;BME280;37953;52.806;18.270;2022-08-07T02:14:22;101565.16;;;16.36;83.18
51928;BME280;37953;52.806;18.270;2022-08-07T02:16:50;101566.94;;;16.31;83.24
51928;BME280;37953;52.806;18.270;2022-08-07T02:19:18;101563.47;;;16.24;83.02
51928;BME280;37953;52.806;18.270;2022-08-07T02:21:46;101563.50;;;16.13;83.44
51928;BME280;37953;52.806;18.270;2022-08-07T02:24:12;101574.84;;;16.11;83.87
51928;BME280;37953;52.806;18.270;2022-08-07T02:26:40;101566.16;;;16.01;84.08
51928;BME280;37953;52.806;18.270;2022-08-07T02:29:08;101567.88;;;16.02;84.13
51928;BME280;37953;52.806;18.270;2022-08-07T02:31:35;101563.53;;;15.95;84.80
51928;BME280;37953;52.806;18.270;2022-08-07T02:34:04;101570.50;;;15.96;85.39
51928;BME280;37953;52.806;18.270;2022-08-07T02:36:36;101568.78;;;15.96;86.18
51928;BME280;37953;52.806;18.270;2022-08-07T02:39:06;101573.16;;;15.94;86.16
51928;BME280;37953;52.806;18.270;2022-08-07T02:41:32;101575.78;;;15.93;86.30
51928;BME280;37953;52.806;18.270;2022-08-07T02:44:02;101574.00;;;15.92;86.56
51928;BME280;37953;52.806;18.270;2022-08-07T02:46:29;101574.03;;;15.88;86.64
51928;BME280;37953;52.806;18.270;2022-08-07T02:48:56;101574.03;;;15.85;87.09
51928;BME280;37953;52.806;18.270;2022-08-07T02:51:28;101570.53;;;15.85;87.50
51928;BME280;37953;52.806;18.270;2022-08-07T02:54:00;101583.66;;;15.83;87.81
51928;BME280;37953;52.806;18.270;2022-08-07T02:56:30;101577.53;;;15.81;88.50
51928;BME280;37953;52.806;18.270;2022-08-07T02:59:01;101568.78;;;15.82;88.70
51928;BME280;37953;52.806;18.270;2022-08-07T03:01:30;101575.78;;;15.82;89.02
51928;BME280;37953;52.806;18.270;2022-08-07T03:03:56;101563.59;;;15.75;89.56
51928;BME280;37953;52.806;18.270;2022-08-07T03:06:29;101576.66;;;15.81;89.66
51928;BME280;37953;52.806;18.270;2022-08-07T03:08:55;101576.66;;;15.78;90.19
51928;BME280;37953;52.806;18.270;2022-08-07T03:11:21;101565.28;;;15.71;90.02
51928;BME280;37953;52.806;18.270;2022-08-07T03:13:48;101578.44;;;15.73;90.47
51928;BME280;37953;52.806;18.270;2022-08-07T03:16:15;101566.19;;;15.72;90.79
51928;BME280;37953;52.806;18.270;2022-08-07T03:18:41;101580.13;;;15.69;91.08
51928;BME280;37953;52.806;18.270;2022-08-07T03:21:08;101577.50;;;15.69;91.11
51928;BME280;37953;52.806;18.270;2022-08-07T03:23:35;101574.03;;;15.68;91.69
51928;BME280;37953;52.806;18.270;2022-08-07T03:26:07;101568.75;;;15.70;91.95
51928;BME280;37953;52.806;18.270;2022-08-07T03:28:35;101574.91;;;15.71;92.40
51928;BME280;37953;52.806;18.270;2022-08-07T03:31:03;101569.66;;;15.72;91.99
51928;BME280;37953;52.806;18.270;2022-08-07T03:34:00;101567.91;;;15.79;92.52
51928;BME280;37953;52.806;18.270;2022-08-07T03:36:28;101567.94;;;15.74;92.38
51928;BME280;37953;52.806;18.270;2022-08-07T03:38:58;101571.44;;;15.75;92.85
51928;BME280;37953;52.806;18.270;2022-08-07T03:41:25;101567.06;;;15.74;93.02
51928;BME280;37953;52.806;18.270;2022-08-07T03:43:53;101563.56;;;15.73;93.08
51928;BME280;37953;52.806;18.270;2022-08-07T03:46:19;101567.94;;;15.77;93.23
51928;BME280;37953;52.806;18.270;2022-08-07T03:48:47;101571.41;;;15.81;92.45
51928;BME280;37953;52.806;18.270;2022-08-07T03:51:14;101567.94;;;15.83;92.98
51928;BME280;37953;52.806;18.270;2022-08-07T03:53:40;101567.03;;;15.83;93.43
51928;BME280;37953;52.806;18.270;2022-08-07T03:56:07;101567.91;;;15.85;93.70
51928;BME280;37953;52.806;18.270;2022-08-07T03:58:37;101574.03;;;15.87;93.54
51928;BME280;37953;52.806;18.270;2022-08-07T04:01:04;101570.53;;;15.88;93.98
51928;BME280;37953;52.806;18.270;2022-08-07T04:03:31;101569.66;;;15.89;94.34
51928;BME280;37953;52.806;18.270;2022-08-07T04:05:57;101582.78;;;15.87;94.59
51928;BME280;37953;52.806;18.270;2022-08-07T04:08:23;101580.13;;;15.89;94.94
51928;BME280;37953;52.806;18.270;2022-08-07T04:10:56;101589.72;;;15.92;94.77
51928;BME280;37953;52.806;18.270;2022-08-07T04:13:22;101582.75;;;15.95;93.80
51928;BME280;37953;52.806;18.270;2022-08-07T04:15:50;101585.38;;;15.98;93.46
51928;BME280;37953;52.806;18.270;2022-08-07T04:18:16;101588.00;;;16.03;93.19
51928;BME280;37953;52.806;18.270;2022-08-07T04:20:42;101582.72;;;16.06;91.99
51928;BME280;37953;52.806;18.270;2022-08-07T04:23:09;101587.97;;;16.09;90.11
51928;BME280;37953;52.806;18.270;2022-08-07T04:25:36;101589.72;;;16.13;90.26
51928;BME280;37953;52.806;18.270;2022-08-07T04:28:05;101587.94;;;16.17;90.25
51928;BME280;37953;52.806;18.270;2022-08-07T04:30:38;101585.31;;;16.18;89.83
51928;BME280;37953;52.806;18.270;2022-08-07T04:33:09;101582.69;;;16.18;89.11
51928;BME280;37953;52.806;18.270;2022-08-07T04:35:49;101582.69;;;16.24;88.90
51928;BME280;37953;52.806;18.270;2022-08-07T04:38:15;101587.03;;;16.25;88.30
51928;BME280;37953;52.806;18.270;2022-08-07T04:40:42;101592.31;;;16.22;87.68
51928;BME280;37953;52.806;18.270;2022-08-07T04:43:09;101579.19;;;16.22;87.69
51928;BME280;37953;52.806;18.270;2022-08-07T04:48:59;101587.06;;;16.30;87.12
51928;BME280;37953;52.806;18.270;2022-08-07T04:54:31;101589.66;;;16.28;87.49
51928;BME280;37953;52.806;18.270;2022-08-07T04:57:12;101594.06;;;16.28;87.83
51928;BME280;37953;52.806;18.270;2022-08-07T05:00:14;101598.41;;;16.32;87.74
51928;BME280;37953;52.806;18.270;2022-08-07T05:05:36;101598.38;;;16.34;89.08
51928;BME280;37953;52.806;18.270;2022-08-07T05:11:59;101606.25;;;16.37;89.40
51928;BME280;37953;52.806;18.270;2022-08-07T05:14:11;101609.75;;;16.37;89.92
51928;BME280;37953;52.806;18.270;2022-08-07T05:16:40;101610.59;;;16.38;90.39
51928;BME280;37953;52.806;18.270;2022-08-07T05:19:14;101608.84;;;16.40;91.07
51928;BME280;37953;52.806;18.270;2022-08-07T05:21:43;101609.72;;;16.42;91.48
51928;BME280;37953;52.806;18.270;2022-08-07T05:24:14;101612.34;;;16.45;91.58
51928;BME280;37953;52.806;18.270;2022-08-07T05:26:42;101616.72;;;16.47;92.06
51928;BME280;37953;52.806;18.270;2022-08-07T05:29:10;101615.81;;;16.52;92.75
51928;BME280;37953;52.806;18.270;2022-08-07T05:31:46;101619.31;;;16.55;93.37
51928;BME280;37953;52.806;18.270;2022-08-07T05:34:14;101614.06;;;16.58;93.45
51928;BME280;37953;52.806;18.270;2022-08-07T05:36:48;101615.78;;;16.62;94.00
51928;BME280;37953;52.806;18.270;2022-08-07T05:39:16;101616.66;;;16.64;93.91
51928;BME280;37953;52.806;18.270;2022-08-07T05:41:53;101610.53;;;16.68;94.35
51928;BME280;37953;52.806;18.270;2022-08-07T05:44:20;101608.75;;;16.71;94.47
51928;BME280;37953;52.806;18.270;2022-08-07T05:46:48;101607.00;;;16.73;94.27
51928;BME280;37953;52.806;18.270;2022-08-07T05:49:14;101609.59;;;16.77;94.61
51928;BME280;37953;52.806;18.270;2022-08-07T05:51:42;101606.13;;;16.83;95.19
51928;BME280;37953;52.806;18.270;2022-08-07T05:54:09;101613.97;;;16.87;94.11
51928;BME280;37953;52.806;18.270;2022-08-07T05:56:35;101613.94;;;16.91;93.68
51928;BME280;37953;52.806;18.270;2022-08-07T05:59:04;101615.66;;;16.96;93.21
51928;BME280;37953;52.806;18.270;2022-08-07T06:01:31;101616.53;;;17.00;93.71
51928;BME280;37953;52.806;18.270;2022-08-07T06:03:59;101614.72;;;17.03;93.33
51928;BME280;37953;52.806;18.270;2022-08-07T06:06:26;101610.34;;;17.07;92.78
51928;BME280;37953;52.806;18.270;2022-08-07T06:08:52;101614.69;;;17.09;92.50
51928;BME280;37953;52.806;18.270;2022-08-07T06:11:18;101619.06;;;17.14;92.52
51928;BME280;37953;52.806;18.270;2022-08-07T06:13:44;101615.53;;;17.16;91.87
51928;BME280;37953;52.806;18.270;2022-08-07T06:16:12;101612.03;;;17.19;91.79
51928;BME280;37953;52.806;18.270;2022-08-07T06:18:39;101619.00;;;17.24;91.10
51928;BME280;37953;52.806;18.270;2022-08-07T06:21:06;101610.25;;;17.25;90.64
51928;BME280;37953;52.806;18.270;2022-08-07T06:23:32;101612.84;;;17.30;91.09
51928;BME280;37953;52.806;18.270;2022-08-07T06:25:59;101613.69;;;17.34;90.60
51928;BME280;37953;52.806;18.270;2022-08-07T06:28:26;101617.16;;;17.37;90.45
51928;BME280;37953;52.806;18.270;2022-08-07T06:30:52;101614.53;;;17.40;89.95
51928;BME280;37953;52.806;18.270;2022-08-07T06:33:18;101614.47;;;17.45;90.67
51928;BME280;37953;52.806;18.270;2022-08-07T06:35:44;101618.84;;;17.49;91.06
51928;BME280;37953;52.806;18.270;2022-08-07T06:38:10;101621.47;;;17.50;89.59
51928;BME280;37953;52.806;18.270;2022-08-07T06:40:47;101620.50;;;17.56;89.08
51928;BME280;37953;52.806;18.270;2022-08-07T06:43:15;101616.97;;;17.59;89.61
51928;BME280;37953;52.806;18.270;2022-08-07T06:45:42;101624.88;;;17.60;89.31
51928;BME280;37953;52.806;18.270;2022-08-07T06:48:08;101627.44;;;17.65;89.17
51928;BME280;37953;52.806;18.270;2022-08-07T06:50:35;101630.06;;;17.68;89.57
51928;BME280;37953;52.806;18.270;2022-08-07T06:53:02;101630.03;;;17.71;89.44
51928;BME280;37953;52.806;18.270;2022-08-07T06:55:34;101630.03;;;17.74;89.54
51928;BME280;37953;52.806;18.270;2022-08-07T06:58:10;101629.97;;;17.79;89.62
51928;BME280;37953;52.806;18.270;2022-08-07T07:00:39;101632.59;;;17.79;89.22
51928;BME280;37953;52.806;18.270;2022-08-07T07:03:12;101635.22;;;17.83;89.75
51928;BME280;37953;52.806;18.270;2022-08-07T07:05:39;101635.22;;;17.85;89.27
51928;BME280;37953;52.806;18.270;2022-08-07T07:08:05;101634.31;;;17.87;90.40
51928;BME280;37953;52.806;18.270;2022-08-07T07:10:33;101636.03;;;17.90;90.19
51928;BME280;37953;52.806;18.270;2022-08-07T07:13:22;101631.63;;;17.95;90.35
51928;BME280;37953;52.806;18.270;2022-08-07T07:15:57;101632.47;;;17.97;90.43
51928;BME280;37953;52.806;18.270;2022-08-07T07:18:40;101636.84;;;18.00;89.63
51928;BME280;37953;52.806;18.270;2022-08-07T07:21:21;101621.00;;;18.04;90.02
51928;BME280;37953;52.806;18.270;2022-08-07T07:23:48;101619.22;;;18.08;89.72
51928;BME280;37953;52.806;18.270;2022-08-07T07:26:21;101626.22;;;18.12;90.32
51928;BME280;37953;52.806;18.270;2022-08-07T07:28:52;101620.91;;;18.15;89.53
51928;BME280;37953;52.806;18.270;2022-08-07T07:31:23;101620.91;;;18.17;88.93
51928;BME280;37953;52.806;18.270;2022-08-07T07:33:55;101623.50;;;18.18;89.09
51928;BME280;37953;52.806;18.270;2022-08-07T07:36:24;101616.47;;;18.20;89.08
51928;BME280;37953;52.806;18.270;2022-08-07T07:38:50;101621.69;;;18.23;88.52
51928;BME280;37953;52.806;18.270;2022-08-07T07:41:23;101622.53;;;18.27;88.07
51928;BME280;37953;52.806;18.270;2022-08-07T07:43:51;101620.72;;;18.30;88.28
51928;BME280;37953;52.806;18.270;2022-08-07T07:46:18;101618.09;;;18.32;88.19
51928;BME280;37953;52.806;18.270;2022-08-07T07:48:47;101613.66;;;18.37;87.08
51928;BME280;37953;52.806;18.270;2022-08-07T07:51:14;101620.66;;;18.37;85.36
51928;BME280;37953;52.806;18.270;2022-08-07T07:53:44;101618.03;;;18.40;85.14
51928;BME280;37953;52.806;18.270;2022-08-07T07:56:12;101613.63;;;18.40;85.55
51928;BME280;37953;52.806;18.270;2022-08-07T07:58:41;101608.25;;;18.49;86.00
51928;BME280;37953;52.806;18.270;2022-08-07T08:01:09;101596.91;;;18.46;86.09
51928;BME280;37953;52.806;18.270;2022-08-07T08:03:36;101603.88;;;18.50;86.80
51928;BME280;37953;52.806;18.270;2022-08-07T08:06:05;101606.47;;;18.51;86.12
51928;BME280;37953;52.806;18.270;2022-08-07T08:08:33;101615.22;;;18.54;84.13
51928;BME280;37953;52.806;18.270;2022-08-07T08:11:10;101616.06;;;18.56;82.37
51928;BME280;37953;52.806;18.270;2022-08-07T08:13:44;101615.16;;;18.58;83.05
51928;BME280;37953;52.806;18.270;2022-08-07T08:16:13;101609.00;;;18.59;83.75
51928;BME280;37953;52.806;18.270;2022-08-07T08:18:42;101607.25;;;18.60;82.66
51928;BME280;37953;52.806;18.270;2022-08-07T08:21:09;101610.72;;;18.63;82.98
51928;BME280;37953;52.806;18.270;2022-08-07T08:24:01;101608.88;;;18.71;83.60
51928;BME280;37953;52.806;18.270;2022-08-07T08:26:46;101614.94;;;18.80;83.78
51928;BME280;37953;52.806;18.270;2022-08-07T08:29:53;101617.44;;;18.89;82.67
51928;BME280;37953;52.806;18.270;2022-08-07T08:32:23;101606.84;;;18.94;82.16
51928;BME280;37953;52.806;18.270;2022-08-07T08:34:51;101603.28;;;18.98;81.61
51928;BME280;37953;52.806;18.270;2022-08-07T08:37:18;101606.75;;;19.00;79.91
51928;BME280;37953;52.806;18.270;2022-08-07T08:39:51;101608.47;;;19.02;80.47
51928;BME280;37953;52.806;18.270;2022-08-07T08:45:13;101604.03;;;19.06;80.08
51928;BME280;37953;52.806;18.270;2022-08-07T08:47:51;101604.03;;;19.06;79.14
51928;BME280;37953;52.806;18.270;2022-08-07T08:51:00;101604.81;;;19.14;79.02
51928;BME280;37953;52.806;18.270;2022-08-07T08:56:09;101600.22;;;19.25;77.87
51928;BME280;37953;52.806;18.270;2022-08-07T09:01:25;101608.03;;;19.35;76.59
51928;BME280;37953;52.806;18.270;2022-08-07T09:04:10;101593.81;;;19.43;76.78
51928;BME280;37953;52.806;18.270;2022-08-07T09:07:05;101596.28;;;19.52;79.69
51928;BME280;37953;52.806;18.270;2022-08-07T09:12:45;101601.41;;;19.62;75.78
51928;BME280;37953;52.806;18.270;2022-08-07T09:32:07;101594.97;;;19.81;72.15
51928;BME280;37953;52.806;18.270;2022-08-07T09:37:52;101588.03;;;19.77;71.23
51928;BME280;37953;52.806;18.270;2022-08-07T09:40:34;101580.09;;;19.77;71.17
51928;BME280;37953;52.806;18.270;2022-08-07T09:49:11;101560.34;;;20.00;71.78
51928;BME280;37953;52.806;18.270;2022-08-07T10:00:12;101545.06;;;20.17;71.69
51928;BME280;37953;52.806;18.270;2022-08-07T10:15:45;101533.13;;;20.41;70.66
51928;BME280;37953;52.806;18.270;2022-08-07T10:20:56;101527.69;;;20.49;71.35
51928;BME280;37953;52.806;18.270;2022-08-07T10:24:07;101523.16;;;20.56;72.46
51928;BME280;37953;52.806;18.270;2022-08-07T10:35:59;101516.47;;;20.80;68.33
51928;BME280;37953;52.806;18.270;2022-08-07T10:39:01;101516.34;;;20.84;65.88
51928;BME280;37953;52.806;18.270;2022-08-07T10:41:51;101517.22;;;20.85;64.05
51928;BME280;37953;52.806;18.270;2022-08-07T10:44:46;101509.38;;;20.82;63.09
51928;BME280;37953;52.806;18.270;2022-08-07T10:50:07;101513.00;;;20.78;63.96
51928;BME280;37953;52.806;18.270;2022-08-07T10:53:00;101508.56;;;20.80;63.36
51928;BME280;37953;52.806;18.270;2022-08-07T11:00:59;101495.91;;;20.94;68.67
51928;BME280;37953;52.806;18.270;2022-08-07T11:07:36;101489.50;;;21.04;66.88
51928;BME280;37953;52.806;18.270;2022-08-07T11:09:43;101495.63;;;21.05;65.59
51928;BME280;37953;52.806;18.270;2022-08-07T11:15:03;101488.69;;;21.01;64.85
51928;BME280;37953;52.806;18.270;2022-08-07T11:17:51;101483.50;;;20.98;65.55
51928;BME280;37953;52.806;18.270;2022-08-07T11:25:52;101471.75;;;21.08;66.62
51928;BME280;37953;52.806;18.270;2022-08-07T11:28:40;101468.00;;;21.17;68.53
51928;BME280;37953;52.806;18.270;2022-08-07T11:31:28;101466.03;;;21.26;69.43
51928;BME280;37953;52.806;18.270;2022-08-07T11:34:27;101466.66;;;21.36;65.32
51928;BME280;37953;52.806;18.270;2022-08-07T11:37:12;101467.41;;;21.41;63.12
51928;BME280;37953;52.806;18.270;2022-08-07T11:40:17;101466.53;;;21.42;62.05
51928;BME280;37953;52.806;18.270;2022-08-07T11:43:26;101465.34;;;21.52;68.78
51928;BME280;37953;52.806;18.270;2022-08-07T12:01:49;101453.41;;;22.02;63.40
51928;BME280;37953;52.806;18.270;2022-08-07T12:07:21;101445.19;;;22.11;59.39
51928;BME280;37953;52.806;18.270;2022-08-07T12:09:54;101452.13;;;22.15;58.65
51928;BME280;37953;52.806;18.270;2022-08-07T12:12:27;101444.19;;;22.15;58.92
51928;BME280;37953;52.806;18.270;2022-08-07T12:15:23;101445.97;;;22.14;59.27
51928;BME280;37953;52.806;18.270;2022-08-07T12:17:52;101444.34;;;22.10;58.85
51928;BME280;37953;52.806;18.270;2022-08-07T12:20:27;101441.84;;;22.06;59.26
51928;BME280;37953;52.806;18.270;2022-08-07T12:25:57;101439.59;;;21.92;56.97
51928;BME280;37953;52.806;18.270;2022-08-07T12:31:18;101432.88;;;21.80;58.41
51928;BME280;37953;52.806;18.270;2022-08-07T12:33:47;101429.53;;;21.73;59.41
51928;BME280;37953;52.806;18.270;2022-08-07T12:36:15;101425.34;;;21.65;59.08
51928;BME280;37953;52.806;18.270;2022-08-07T12:38:42;101426.28;;;21.64;59.69
51928;BME280;37953;52.806;18.270;2022-08-07T12:41:10;101429.81;;;21.63;60.36
51928;BME280;37953;52.806;18.270;2022-08-07T12:43:43;101420.31;;;21.57;60.26
51928;BME280;37953;52.806;18.270;2022-08-07T12:46:25;101418.56;;;21.56;59.87
51928;BME280;37953;52.806;18.270;2022-08-07T12:49:21;101417.69;;;21.55;58.72
51928;BME280;37953;52.806;18.270;2022-08-07T12:51:50;101418.41;;;21.61;58.25
51928;BME280;37953;52.806;18.270;2022-08-07T12:54:27;101418.25;;;21.67;57.99
51928;BME280;37953;52.806;18.270;2022-08-07T12:56:55;101411.94;;;21.72;57.92
51928;BME280;37953;52.806;18.270;2022-08-07T12:59:27;101410.00;;;21.78;56.06
51928;BME280;37953;52.806;18.270;2022-08-07T13:13:46;101399.88;;;22.23;54.74
51928;BME280;37953;52.806;18.270;2022-08-07T13:21:45;101397.03;;;22.29;57.08
51928;BME280;37953;52.806;18.270;2022-08-07T13:24:39;101389.19;;;22.26;57.31
51928;BME280;37953;52.806;18.270;2022-08-07T13:27:32;101393.72;;;22.23;56.49
51928;BME280;37953;52.806;18.270;2022-08-07T13:30:09;101400.03;;;22.17;57.15
51928;BME280;37953;52.806;18.270;2022-08-07T13:35:24;101393.25;;;22.08;57.94
51928;BME280;37953;52.806;18.270;2022-08-07T13:38:03;101383.63;;;22.06;58.43
51928;BME280;37953;52.806;18.270;2022-08-07T13:43:56;101394.22;;;22.06;58.77
51928;BME280;37953;52.806;18.270;2022-08-07T13:46:30;101381.19;;;21.98;57.39
51928;BME280;37953;52.806;18.270;2022-08-07T13:48:59;101386.44;;;22.00;57.64
51928;BME280;37953;52.806;18.270;2022-08-07T13:51:27;101375.94;;;21.96;57.07
51928;BME280;37953;52.806;18.270;2022-08-07T13:54:08;101377.63;;;21.99;57.81
51928;BME280;37953;52.806;18.270;2022-08-07T13:56:38;101370.38;;;22.06;58.71
51928;BME280;37953;52.806;18.270;2022-08-07T13:59:10;101369.94;;;22.20;58.32
51928;BME280;37953;52.806;18.270;2022-08-07T14:01:54;101369.75;;;22.27;57.58
51928;BME280;37953;52.806;18.270;2022-08-07T14:04:23;101378.59;;;22.26;57.09
51928;BME280;37953;52.806;18.270;2022-08-07T14:06:51;101372.53;;;22.23;56.97
51928;BME280;37953;52.806;18.270;2022-08-07T14:11:48;101370.91;;;22.17;56.71
51928;BME280;37953;52.806;18.270;2022-08-07T14:14:38;101364.81;;;22.15;55.05
51928;BME280;37953;52.806;18.270;2022-08-07T14:17:05;101367.50;;;22.13;56.89
51928;BME280;37953;52.806;18.270;2022-08-07T14:19:48;101368.38;;;22.14;57.51
51928;BME280;37953;52.806;18.270;2022-08-07T14:22:21;101363.97;;;22.13;56.82
51928;BME280;37953;52.806;18.270;2022-08-07T14:24:59;101358.69;;;22.13;58.56
51928;BME280;37953;52.806;18.270;2022-08-07T14:27:45;101359.53;;;22.13;57.29
51928;BME280;37953;52.806;18.270;2022-08-07T14:30:12;101357.91;;;22.09;56.06
51928;BME280;37953;52.806;18.270;2022-08-07T14:32:41;101357.91;;;22.09;55.95
51928;BME280;37953;52.806;18.270;2022-08-07T14:35:19;101356.22;;;22.07;56.83
51928;BME280;37953;52.806;18.270;2022-08-07T14:37:47;101345.75;;;22.04;55.43
51928;BME280;37953;52.806;18.270;2022-08-07T14:40:22;101344.88;;;22.03;55.68
51928;BME280;37953;52.806;18.270;2022-08-07T14:43:08;101341.28;;;22.06;57.16
51928;BME280;37953;52.806;18.270;2022-08-07T14:45:57;101338.56;;;22.07;59.59
51928;BME280;37953;52.806;18.270;2022-08-07T14:48:29;101344.75;;;22.08;59.36
51928;BME280;37953;52.806;18.270;2022-08-07T14:51:02;101345.56;;;22.10;59.04
51928;BME280;37953;52.806;18.270;2022-08-07T14:53:32;101334.06;;;22.11;59.15
51928;BME280;37953;52.806;18.270;2022-08-07T14:56:06;101335.84;;;22.10;57.80
51928;BME280;37953;52.806;18.270;2022-08-07T14:58:43;101335.81;;;22.12;56.04
51928;BME280;37953;52.806;18.270;2022-08-07T15:01:13;101337.53;;;22.13;56.30
51928;BME280;37953;52.806;18.270;2022-08-07T15:03:42;101337.31;;;22.19;56.16
51928;BME280;37953;52.806;18.270;2022-08-07T15:06:11;101342.50;;;22.22;56.02
51928;BME280;37953;52.806;18.270;2022-08-07T15:08:43;101334.56;;;22.22;54.88
51928;BME280;37953;52.806;18.270;2022-08-07T15:11:18;101342.47;;;22.25;54.75
51928;BME280;37953;52.806;18.270;2022-08-07T15:13:56;101333.34;;;22.34;56.29
51928;BME280;37953;52.806;18.270;2022-08-07T15:16:32;101326.88;;;22.43;55.46
51928;BME280;37953;52.806;18.270;2022-08-07T15:19:23;101334.84;;;22.43;53.44
51928;BME280;37953;52.806;18.270;2022-08-07T15:21:53;101331.41;;;22.39;53.11
51928;BME280;37953;52.806;18.270;2022-08-07T15:24:28;101328.56;;;22.45;52.88
51928;BME280;37953;52.806;18.270;2022-08-07T15:27:10;101324.91;;;22.49;51.40
51928;BME280;37953;52.806;18.270;2022-08-07T15:29:44;101323.72;;;22.58;51.68
51928;BME280;37953;52.806;18.270;2022-08-07T15:32:11;101316.34;;;22.68;52.01
51928;BME280;37953;52.806;18.270;2022-08-07T15:34:56;101313.19;;;22.82;52.37
51928;BME280;37953;52.806;18.270;2022-08-07T15:37:30;101313.81;;;22.90;53.14
51928;BME280;37953;52.806;18.270;2022-08-07T15:39:58;101307.38;;;22.97;52.41